createdAt,value
2017-09-17T11:03:55.978Z,18.51
2017-09-17T11:06:23.427Z,18.61
2017-09-17T11:08:50.897Z,18.70
2017-09-17T11:11:18.366Z,18.81
2017-09-17T11:13:45.872Z,18.93
2017-09-17T11:16:13.316Z,19.00
2017-09-17T11:18:40.785Z,19.08
2017-09-17T11:21:08.260Z,19.15
2017-09-17T11:23:35.760Z,19.21
2017-09-17T11:26:03.240Z,19.27
2017-09-17T11:28:30.698Z,19.34
2017-09-17T11:30:58.185Z,19.40
2017-09-17T11:33:25.727Z,19.44
2017-09-17T11:35:53.212Z,19.49
2017-09-17T11:38:20.669Z,19.50
2017-09-17T11:40:48.140Z,19.56
2017-09-17T11:43:15.613Z,19.58
2017-09-17T11:45:43.124Z,19.85
2017-09-17T11:48:10.577Z,20.03
2017-09-17T11:50:38.137Z,19.50
2017-09-17T11:53:05.653Z,18.26
2017-09-17T11:55:33.144Z,17.59
2017-09-17T11:58:00.655Z,17.54
2017-09-17T12:00:28.109Z,17.58
2017-09-17T12:02:55.593Z,17.33
2017-09-17T12:05:23.453Z,17.38
2017-09-17T12:07:50.957Z,17.26
2017-09-17T12:10:18.506Z,17.14
2017-09-17T12:12:46.133Z,16.79
2017-09-17T12:15:13.588Z,16.70
2017-09-17T12:17:41.077Z,16.58
2017-09-17T12:20:08.555Z,16.73
2017-09-17T12:22:36.018Z,17.04
2017-09-17T12:25:03.490Z,16.98
2017-09-17T12:27:30.961Z,17.30
2017-09-17T12:29:58.502Z,17.53
2017-09-17T12:32:26.037Z,17.76
2017-09-17T12:34:53.539Z,17.84
2017-09-17T12:37:21.017Z,17.98
2017-09-17T12:39:48.658Z,17.98
2017-09-17T12:42:16.162Z,18.00
2017-09-17T12:44:43.642Z,18.06
2017-09-17T12:47:11.135Z,17.75
2017-09-17T12:49:38.602Z,18.02
2017-09-17T12:52:06.121Z,18.39
2017-09-17T12:54:33.655Z,18.74
2017-09-17T12:57:01.151Z,18.58
2017-09-17T12:59:28.616Z,18.87
2017-09-17T13:01:56.106Z,18.99
2017-09-17T13:04:23.566Z,18.93
2017-09-17T13:06:51.052Z,18.95
2017-09-17T13:09:18.515Z,18.84
2017-09-17T13:11:46.083Z,18.98
2017-09-17T13:14:13.601Z,19.02
2017-09-17T13:16:41.121Z,19.22
2017-09-17T13:19:08.581Z,19.59
2017-09-17T13:21:36.133Z,19.63
2017-09-17T13:24:03.667Z,19.42
2017-09-17T13:26:31.122Z,19.03
2017-09-17T13:28:58.657Z,18.98
2017-09-17T13:31:27.167Z,19.09
2017-09-17T13:33:54.667Z,18.91
2017-09-17T13:36:22.134Z,18.78
2017-09-17T13:38:49.644Z,18.46
2017-09-17T13:41:17.125Z,18.44
2017-09-17T13:43:44.604Z,18.40
2017-09-17T13:46:12.084Z,18.22
2017-09-17T13:48:39.564Z,18.02
2017-09-17T13:51:07.061Z,17.96
2017-09-17T13:53:34.545Z,17.82
2017-09-17T13:56:02.038Z,18.00
2017-09-17T13:58:29.502Z,18.42
2017-09-17T14:00:56.974Z,18.58
2017-09-17T14:06:44.413Z,19.06
2017-09-17T14:09:14.387Z,19.58
2017-09-17T14:11:41.878Z,19.70
2017-09-17T14:14:09.351Z,19.94
2017-09-17T14:16:36.834Z,20.18
2017-09-17T14:19:04.309Z,20.67
2017-09-17T14:21:31.805Z,20.90
2017-09-17T14:23:59.284Z,21.33
2017-09-17T14:26:26.768Z,21.09
2017-09-17T14:28:54.271Z,21.07
2017-09-17T14:31:21.827Z,21.31
2017-09-17T14:33:49.322Z,21.33
2017-09-17T14:36:16.976Z,21.12
2017-09-17T14:38:44.435Z,21.20
2017-09-17T14:41:11.913Z,21.31
2017-09-17T14:43:39.372Z,21.20
2017-09-17T14:46:06.869Z,21.50
2017-09-17T14:48:34.328Z,20.99
2017-09-17T14:51:01.831Z,20.69
2017-09-17T14:53:29.340Z,20.97
2017-09-17T14:55:56.832Z,21.11
2017-09-17T14:58:24.296Z,20.91
2017-09-17T15:00:51.779Z,20.56
2017-09-17T15:03:19.244Z,20.63
2017-09-17T15:05:46.736Z,20.58
2017-09-17T15:08:14.206Z,20.92
2017-09-17T15:10:41.697Z,21.25
2017-09-17T15:13:09.157Z,21.14
2017-09-17T15:15:36.647Z,21.01
2017-09-17T15:18:04.105Z,20.78
2017-09-17T15:20:31.578Z,21.01
2017-09-17T15:22:59.072Z,21.13
2017-09-17T15:25:26.558Z,21.16
2017-09-17T15:27:54.052Z,21.20
2017-09-17T15:30:21.551Z,21.06
2017-09-17T15:32:49.020Z,20.83
2017-09-17T15:35:16.528Z,20.50
2017-09-17T15:37:44.015Z,20.21
2017-09-17T15:40:11.507Z,20.10
2017-09-17T15:42:38.983Z,19.99
2017-09-17T15:45:06.469Z,19.77
2017-09-17T15:47:33.947Z,19.53
2017-09-17T15:50:01.456Z,19.45
2017-09-17T15:52:28.907Z,19.28
2017-09-17T15:54:56.421Z,19.02
2017-09-17T15:57:23.876Z,19.08
2017-09-17T15:59:51.357Z,19.11
2017-09-17T16:02:18.818Z,18.86
2017-09-17T16:04:46.308Z,18.76
2017-09-17T16:07:13.822Z,18.63
2017-09-17T16:09:41.286Z,18.62
2017-09-17T16:12:08.791Z,18.54
2017-09-17T16:14:36.282Z,18.42
2017-09-17T16:17:03.761Z,18.30
2017-09-17T16:19:31.219Z,17.97
2017-09-17T16:21:58.702Z,17.92
2017-09-17T16:24:26.185Z,17.91
2017-09-17T16:26:53.665Z,17.94
2017-09-17T16:29:21.124Z,17.87
2017-09-17T16:31:48.647Z,17.80
2017-09-17T16:34:16.135Z,17.72
2017-09-17T16:36:43.582Z,17.60
2017-09-17T16:39:11.063Z,17.51
2017-09-17T16:41:38.571Z,17.55
2017-09-17T16:44:06.034Z,17.51
2017-09-17T16:46:33.534Z,17.48
2017-09-17T16:49:01.035Z,17.22
2017-09-17T16:51:29.260Z,17.27
2017-09-17T16:53:56.711Z,17.08
2017-09-17T16:56:24.219Z,16.93
2017-09-17T16:58:51.706Z,16.86
2017-09-17T17:01:19.195Z,16.87
2017-09-17T17:03:46.651Z,16.88
2017-09-17T17:06:14.151Z,16.88
2017-09-17T17:08:41.614Z,16.82
2017-09-17T17:11:09.071Z,16.86
2017-09-17T17:13:36.551Z,16.65
2017-09-17T17:16:04.057Z,16.50
2017-09-17T17:18:31.666Z,16.42
2017-09-17T17:20:59.134Z,16.43
2017-09-17T17:23:26.593Z,16.42
2017-09-17T17:25:54.077Z,16.41
2017-09-17T17:28:21.538Z,16.19
2017-09-17T17:30:49.028Z,16.18
2017-09-17T17:33:16.545Z,16.13
2017-09-17T17:35:44.044Z,16.19
2017-09-17T17:38:11.518Z,16.27
2017-09-17T17:40:38.993Z,16.25
2017-09-17T17:43:06.469Z,16.24
2017-09-17T17:45:33.929Z,16.09
2017-09-17T17:48:01.442Z,16.02
2017-09-17T17:50:28.908Z,16.00
2017-09-17T17:52:56.403Z,15.97
2017-09-17T17:55:23.890Z,15.98
2017-09-17T17:57:51.391Z,15.92
2017-09-17T18:00:18.882Z,15.86
2017-09-17T18:02:46.363Z,15.82
2017-09-17T18:05:14.691Z,15.74
2017-09-17T18:07:43.122Z,15.79
2017-09-17T18:10:10.667Z,15.76
2017-09-17T18:12:38.138Z,15.79
2017-09-17T18:15:05.754Z,15.78
2017-09-17T18:17:33.254Z,15.69
2017-09-17T18:20:00.710Z,15.62
2017-09-17T18:22:28.209Z,15.64
2017-09-17T18:24:55.706Z,15.70
2017-09-17T18:27:23.163Z,15.72
2017-09-17T18:29:50.646Z,15.62
2017-09-17T18:32:18.165Z,15.34
2017-09-17T18:34:46.543Z,15.43
2017-09-17T18:37:14.076Z,15.53
2017-09-17T18:39:41.559Z,15.63
2017-09-17T18:42:09.172Z,15.59
2017-09-17T18:44:36.680Z,15.58
2017-09-17T18:47:04.171Z,15.62
2017-09-17T18:49:31.731Z,15.48
2017-09-17T18:51:59.206Z,15.35
2017-09-17T18:54:26.945Z,15.25
2017-09-17T18:56:54.444Z,15.17
2017-09-17T18:59:21.952Z,15.13
2017-09-17T19:01:49.456Z,15.12
2017-09-17T19:04:16.968Z,15.13
2017-09-17T19:06:44.477Z,15.07
2017-09-17T19:09:11.955Z,15.16
2017-09-17T19:11:39.477Z,15.07
2017-09-17T19:14:07.012Z,14.97
2017-09-17T19:16:34.524Z,14.84
2017-09-17T19:19:02.054Z,14.89
2017-09-17T19:21:29.589Z,14.87
2017-09-17T19:23:57.066Z,14.78
2017-09-17T19:26:24.593Z,14.78
2017-09-17T19:28:52.104Z,14.73
2017-09-17T19:31:19.684Z,14.71
2017-09-17T19:33:47.202Z,14.70
2017-09-17T19:36:14.855Z,14.92
2017-09-17T19:38:42.377Z,14.95
2017-09-17T19:41:10.753Z,14.93
2017-09-17T19:43:38.285Z,14.86
2017-09-17T19:46:05.778Z,14.81
2017-09-17T19:48:33.370Z,14.75
2017-09-17T19:51:00.903Z,14.69
2017-09-17T19:53:28.469Z,14.70
2017-09-17T19:55:55.952Z,14.68
2017-09-17T19:58:23.537Z,14.63
2017-09-17T20:00:51.048Z,14.61
2017-09-17T20:03:18.563Z,14.69
2017-09-17T20:05:46.135Z,14.63
2017-09-17T20:08:13.608Z,14.50
2017-09-17T20:10:41.102Z,14.52
2017-09-17T20:13:08.576Z,14.56
2017-09-17T20:15:36.097Z,14.57
2017-09-17T20:18:03.606Z,14.58
2017-09-17T20:20:31.109Z,14.54
2017-09-17T20:22:58.654Z,14.55
2017-09-17T20:25:26.229Z,14.54
2017-09-17T20:27:53.721Z,14.47
2017-09-17T20:30:21.189Z,14.39
2017-09-17T20:32:48.682Z,14.42
2017-09-17T20:35:16.158Z,14.43
2017-09-17T20:37:43.660Z,14.44
2017-09-17T20:40:11.128Z,14.48
2017-09-17T20:42:38.630Z,14.46
2017-09-17T20:45:06.096Z,14.45
2017-09-17T20:47:33.608Z,14.49
2017-09-17T20:50:01.068Z,14.50
2017-09-17T20:52:28.557Z,14.47
2017-09-17T20:54:56.061Z,14.44
2017-09-17T20:57:23.538Z,14.43
2017-09-17T20:59:51.065Z,14.28
2017-09-17T21:02:20.017Z,14.03
2017-09-17T21:04:47.517Z,13.95
2017-09-17T21:07:14.987Z,14.06
2017-09-17T21:09:42.495Z,13.99
2017-09-17T21:12:09.956Z,14.01
2017-09-17T21:14:37.424Z,14.10
2017-09-17T21:17:04.917Z,14.05
2017-09-17T21:19:32.383Z,13.96
2017-09-17T21:21:59.904Z,13.96
2017-09-17T21:24:27.361Z,14.08
2017-09-17T21:26:54.881Z,14.25
2017-09-17T21:29:22.337Z,14.34
2017-09-17T21:31:49.834Z,14.36
2017-09-17T21:34:17.328Z,14.37
2017-09-17T21:36:44.794Z,14.31
2017-09-17T21:39:12.273Z,14.35
2017-09-17T21:41:39.776Z,14.29
2017-09-17T21:44:07.373Z,14.20
2017-09-17T21:46:34.836Z,14.28
2017-09-17T21:49:02.320Z,14.34
2017-09-17T21:51:30.978Z,14.33
2017-09-17T21:53:58.438Z,14.31
2017-09-17T21:56:25.937Z,14.26
2017-09-17T21:58:53.402Z,14.16
2017-09-17T22:01:20.893Z,14.19
2017-09-17T22:03:48.365Z,14.31
2017-09-17T22:06:15.859Z,14.28
2017-09-17T22:08:43.344Z,14.32
2017-09-17T22:11:10.825Z,14.39
2017-09-17T22:13:39.024Z,14.52
2017-09-17T22:16:06.501Z,14.59
2017-09-17T22:18:33.977Z,14.51
2017-09-17T22:21:01.473Z,14.55
2017-09-17T22:23:28.968Z,14.61
2017-09-17T22:25:56.513Z,14.63
2017-09-17T22:28:24.013Z,14.72
2017-09-17T22:30:51.475Z,14.78
2017-09-17T22:33:18.949Z,14.68
2017-09-17T22:35:46.461Z,14.56
2017-09-17T22:38:13.975Z,14.64
2017-09-17T22:40:41.432Z,14.55
2017-09-17T22:43:08.922Z,14.61
2017-09-17T22:45:36.383Z,14.63
2017-09-17T22:48:03.907Z,14.69
2017-09-17T22:50:31.366Z,14.71
2017-09-17T22:52:58.853Z,14.66
2017-09-17T22:55:26.357Z,14.56
2017-09-17T22:57:53.833Z,14.51
2017-09-17T23:00:21.346Z,14.53
2017-09-17T23:02:48.850Z,14.47
2017-09-17T23:05:16.366Z,14.49
2017-09-17T23:07:44.425Z,14.47
2017-09-17T23:10:11.894Z,14.50
2017-09-17T23:12:39.350Z,14.43
2017-09-17T23:15:06.850Z,14.43
2017-09-17T23:17:34.336Z,14.36
2017-09-17T23:20:01.870Z,14.39
2017-09-17T23:22:29.356Z,14.33
2017-09-17T23:24:56.843Z,14.33
2017-09-17T23:27:24.329Z,14.23
2017-09-17T23:29:51.812Z,14.40
2017-09-17T23:32:19.323Z,14.40
2017-09-17T23:34:46.789Z,14.25
2017-09-17T23:37:14.295Z,14.25
2017-09-17T23:39:41.761Z,14.22
2017-09-17T23:42:09.614Z,14.25
2017-09-17T23:44:37.077Z,14.24
2017-09-17T23:47:04.530Z,14.20
2017-09-17T23:49:32.034Z,14.17
2017-09-17T23:51:59.512Z,14.00
2017-09-17T23:54:27.016Z,14.36
2017-09-17T23:56:54.493Z,14.35
2017-09-17T23:59:22.114Z,14.25
